sensor_id;sensor_type;location;lat;lon;timestamp;P1;durP1;ratioP1;P2;durP2;ratioP2
29940;SDS011;16801;53.562;10.038;2023-05-07T00:01:54;5.97;;;5.23;;
29940;SDS011;16801;53.562;10.038;2023-05-07T00:05:15;6.73;;;3.80;;
29940;SDS011;16801;53.562;10.038;2023-05-07T00:08:38;5.33;;;4.87;;
29940;SDS011;16801;53.562;10.038;2023-05-07T00:11:59;4.70;;;4.30;;
29940;SDS011;16801;53.562;10.038;2023-05-07T00:15:20;5.33;;;4.83;;
29940;SDS011;16801;53.562;10.038;2023-05-07T00:18:41;4.47;;;4.07;;
29940;SDS011;16801;53.562;10.038;2023-05-07T00:22:02;5.13;;;4.63;;
29940;SDS011;16801;53.562;10.038;2023-05-07T00:25:24;4.43;;;3.77;;
29940;SDS011;16801;53.562;10.038;2023-05-07T00:28:45;5.77;;;5.27;;
29940;SDS011;16801;53.562;10.038;2023-05-07T00:32:06;5.27;;;4.70;;
29940;SDS011;16801;53.562;10.038;2023-05-07T00:35:27;5.20;;;4.37;;
29940;SDS011;16801;53.562;10.038;2023-05-07T00:38:49;5.77;;;4.40;;
29940;SDS011;16801;53.562;10.038;2023-05-07T00:42:11;6.27;;;5.53;;
29940;SDS011;16801;53.562;10.038;2023-05-07T00:45:32;4.73;;;4.23;;
29940;SDS011;16801;53.562;10.038;2023-05-07T00:48:54;6.33;;;4.43;;
29940;SDS011;16801;53.562;10.038;2023-05-07T00:52:15;5.13;;;4.43;;
29940;SDS011;16801;53.562;10.038;2023-05-07T00:55:38;6.20;;;5.63;;
29940;SDS011;16801;53.562;10.038;2023-05-07T00:59:01;5.73;;;4.63;;
29940;SDS011;16801;53.562;10.038;2023-05-07T01:02:22;7.80;;;4.47;;
29940;SDS011;16801;53.562;10.038;2023-05-07T01:05:43;6.43;;;4.47;;
29940;SDS011;16801;53.562;10.038;2023-05-07T01:09:06;5.57;;;5.03;;
29940;SDS011;16801;53.562;10.038;2023-05-07T01:12:28;4.83;;;3.93;;
29940;SDS011;16801;53.562;10.038;2023-05-07T01:15:52;5.37;;;4.53;;
29940;SDS011;16801;53.562;10.038;2023-05-07T01:19:14;3.80;;;3.50;;
29940;SDS011;16801;53.562;10.038;2023-05-07T01:22:40;5.87;;;4.73;;
29940;SDS011;16801;53.562;10.038;2023-05-07T01:26:02;4.43;;;4.03;;
29940;SDS011;16801;53.562;10.038;2023-05-07T01:29:25;3.53;;;3.23;;
29940;SDS011;16801;53.562;10.038;2023-05-07T01:32:48;6.03;;;3.73;;
29940;SDS011;16801;53.562;10.038;2023-05-07T01:36:11;7.30;;;5.37;;
29940;SDS011;16801;53.562;10.038;2023-05-07T01:39:35;6.00;;;5.47;;
29940;SDS011;16801;53.562;10.038;2023-05-07T01:42:59;5.63;;;4.50;;
29940;SDS011;16801;53.562;10.038;2023-05-07T01:46:20;4.37;;;3.97;;
29940;SDS011;16801;53.562;10.038;2023-05-07T01:49:41;3.47;;;3.27;;
29940;SDS011;16801;53.562;10.038;2023-05-07T01:53:03;4.80;;;4.50;;
29940;SDS011;16801;53.562;10.038;2023-05-07T01:56:25;4.00;;;3.40;;
29940;SDS011;16801;53.562;10.038;2023-05-07T01:59:46;3.93;;;3.63;;
29940;SDS011;16801;53.562;10.038;2023-05-07T02:03:07;3.30;;;3.10;;
29940;SDS011;16801;53.562;10.038;2023-05-07T02:06:42;5.17;;;4.57;;
29940;SDS011;16801;53.562;10.038;2023-05-07T02:10:07;6.23;;;4.47;;
29940;SDS011;16801;53.562;10.038;2023-05-07T02:13:32;4.53;;;3.93;;
29940;SDS011;16801;53.562;10.038;2023-05-07T02:16:54;4.43;;;4.10;;
29940;SDS011;16801;53.562;10.038;2023-05-07T02:20:15;3.87;;;3.57;;
29940;SDS011;16801;53.562;10.038;2023-05-07T02:23:36;3.43;;;3.13;;
29940;SDS011;16801;53.562;10.038;2023-05-07T02:26:57;3.87;;;3.57;;
29940;SDS011;16801;53.562;10.038;2023-05-07T02:30:20;3.60;;;3.23;;
29940;SDS011;16801;53.562;10.038;2023-05-07T02:33:44;6.50;;;4.13;;
29940;SDS011;16801;53.562;10.038;2023-05-07T02:37:06;3.53;;;3.17;;
29940;SDS011;16801;53.562;10.038;2023-05-07T02:40:27;4.17;;;3.47;;
29940;SDS011;16801;53.562;10.038;2023-05-07T02:43:48;8.00;;;4.07;;
29940;SDS011;16801;53.562;10.038;2023-05-07T02:47:10;3.97;;;3.53;;
29940;SDS011;16801;53.562;10.038;2023-05-07T02:50:34;4.77;;;4.40;;
29940;SDS011;16801;53.562;10.038;2023-05-07T02:53:55;3.90;;;3.23;;
29940;SDS011;16801;53.562;10.038;2023-05-07T02:57:16;5.43;;;4.93;;
29940;SDS011;16801;53.562;10.038;2023-05-07T03:00:37;7.27;;;4.60;;
29940;SDS011;16801;53.562;10.038;2023-05-07T03:04:20;5.20;;;4.33;;
29940;SDS011;16801;53.562;10.038;2023-05-07T03:07:41;4.30;;;3.40;;
29940;SDS011;16801;53.562;10.038;2023-05-07T03:11:04;3.93;;;3.33;;
29940;SDS011;16801;53.562;10.038;2023-05-07T03:14:26;4.47;;;4.13;;
29940;SDS011;16801;53.562;10.038;2023-05-07T03:17:46;6.10;;;4.97;;
29940;SDS011;16801;53.562;10.038;2023-05-07T03:21:09;7.47;;;3.60;;
29940;SDS011;16801;53.562;10.038;2023-05-07T03:24:30;3.97;;;3.50;;
29940;SDS011;16801;53.562;10.038;2023-05-07T03:27:51;5.30;;;4.80;;
29940;SDS011;16801;53.562;10.038;2023-05-07T03:31:18;4.90;;;4.40;;
29940;SDS011;16801;53.562;10.038;2023-05-07T03:34:38;4.03;;;3.63;;
29940;SDS011;16801;53.562;10.038;2023-05-07T03:38:01;7.53;;;4.30;;
29940;SDS011;16801;53.562;10.038;2023-05-07T03:41:25;6.70;;;5.50;;
29940;SDS011;16801;53.562;10.038;2023-05-07T03:44:47;4.63;;;3.80;;
29940;SDS011;16801;53.562;10.038;2023-05-07T03:48:08;4.27;;;3.80;;
29940;SDS011;16801;53.562;10.038;2023-05-07T03:51:29;4.77;;;4.27;;
29940;SDS011;16801;53.562;10.038;2023-05-07T03:54:52;4.47;;;3.90;;
29940;SDS011;16801;53.562;10.038;2023-05-07T03:58:15;5.17;;;4.70;;
29940;SDS011;16801;53.562;10.038;2023-05-07T04:01:37;4.40;;;4.00;;
29940;SDS011;16801;53.562;10.038;2023-05-07T04:04:58;5.77;;;5.23;;
29940;SDS011;16801;53.562;10.038;2023-05-07T04:08:19;3.53;;;3.33;;
29940;SDS011;16801;53.562;10.038;2023-05-07T04:11:44;4.83;;;4.43;;
29940;SDS011;16801;53.562;10.038;2023-05-07T04:15:05;4.83;;;4.43;;
29940;SDS011;16801;53.562;10.038;2023-05-07T04:18:27;5.13;;;4.23;;
29940;SDS011;16801;53.562;10.038;2023-05-07T04:21:49;4.63;;;4.23;;
29940;SDS011;16801;53.562;10.038;2023-05-07T04:25:10;3.87;;;3.50;;
29940;SDS011;16801;53.562;10.038;2023-05-07T04:28:32;6.47;;;4.87;;
29940;SDS011;16801;53.562;10.038;2023-05-07T04:31:53;4.67;;;4.07;;
29940;SDS011;16801;53.562;10.038;2023-05-07T04:35:15;5.60;;;3.40;;
29940;SDS011;16801;53.562;10.038;2023-05-07T04:38:37;3.97;;;3.67;;
29940;SDS011;16801;53.562;10.038;2023-05-07T04:41:58;6.03;;;3.87;;
29940;SDS011;16801;53.562;10.038;2023-05-07T04:45:22;4.23;;;3.87;;
29940;SDS011;16801;53.562;10.038;2023-05-07T04:48:45;5.07;;;4.13;;
29940;SDS011;16801;53.562;10.038;2023-05-07T04:52:06;5.03;;;4.20;;
29940;SDS011;16801;53.562;10.038;2023-05-07T04:55:27;3.40;;;3.10;;
29940;SDS011;16801;53.562;10.038;2023-05-07T04:58:48;4.87;;;4.47;;
29940;SDS011;16801;53.562;10.038;2023-05-07T05:02:13;4.20;;;3.57;;
29940;SDS011;16801;53.562;10.038;2023-05-07T05:05:35;3.93;;;3.57;;
29940;SDS011;16801;53.562;10.038;2023-05-07T05:08:56;3.67;;;3.27;;
29940;SDS011;16801;53.562;10.038;2023-05-07T05:12:18;4.27;;;3.87;;
29940;SDS011;16801;53.562;10.038;2023-05-07T05:15:39;4.80;;;4.37;;
29940;SDS011;16801;53.562;10.038;2023-05-07T05:19:02;4.23;;;3.83;;
29940;SDS011;16801;53.562;10.038;2023-05-07T05:22:25;3.47;;;3.17;;
29940;SDS011;16801;53.562;10.038;2023-05-07T05:25:50;8.20;;;4.80;;
29940;SDS011;16801;53.562;10.038;2023-05-07T05:29:16;3.77;;;3.43;;
29940;SDS011;16801;53.562;10.038;2023-05-07T05:32:37;5.03;;;4.50;;
29940;SDS011;16801;53.562;10.038;2023-05-07T05:36:01;5.93;;;3.63;;
29940;SDS011;16801;53.562;10.038;2023-05-07T05:39:21;5.27;;;3.97;;
29940;SDS011;16801;53.562;10.038;2023-05-07T05:42:43;4.17;;;3.70;;
29940;SDS011;16801;53.562;10.038;2023-05-07T05:46:05;3.53;;;3.13;;
29940;SDS011;16801;53.562;10.038;2023-05-07T05:49:27;5.33;;;3.70;;
29940;SDS011;16801;53.562;10.038;2023-05-07T05:52:49;4.93;;;4.20;;
29940;SDS011;16801;53.562;10.038;2023-05-07T05:56:12;5.43;;;3.80;;
29940;SDS011;16801;53.562;10.038;2023-05-07T05:59:34;5.53;;;4.70;;
29940;SDS011;16801;53.562;10.038;2023-05-07T06:02:55;4.60;;;4.20;;
29940;SDS011;16801;53.562;10.038;2023-05-07T06:06:18;4.07;;;3.77;;
29940;SDS011;16801;53.562;10.038;2023-05-07T06:09:40;4.87;;;4.47;;
29940;SDS011;16801;53.562;10.038;2023-05-07T06:13:02;4.23;;;3.50;;
29940;SDS011;16801;53.562;10.038;2023-05-07T06:16:24;3.80;;;3.50;;
29940;SDS011;16801;53.562;10.038;2023-05-07T06:19:46;6.87;;;4.80;;
29940;SDS011;16801;53.562;10.038;2023-05-07T06:23:09;4.07;;;3.73;;
29940;SDS011;16801;53.562;10.038;2023-05-07T06:26:32;3.80;;;3.50;;
29940;SDS011;16801;53.562;10.038;2023-05-07T06:29:53;5.30;;;4.00;;
29940;SDS011;16801;53.562;10.038;2023-05-07T06:33:14;3.73;;;3.40;;
29940;SDS011;16801;53.562;10.038;2023-05-07T06:36:36;6.37;;;4.37;;
29940;SDS011;16801;53.562;10.038;2023-05-07T06:40:09;4.47;;;3.00;;
29940;SDS011;16801;53.562;10.038;2023-05-07T06:43:34;5.00;;;3.93;;
29940;SDS011;16801;53.562;10.038;2023-05-07T06:47:25;3.93;;;3.20;;
29940;SDS011;16801;53.562;10.038;2023-05-07T06:50:48;4.37;;;3.90;;
29940;SDS011;16801;53.562;10.038;2023-05-07T06:54:09;4.17;;;3.70;;
29940;SDS011;16801;53.562;10.038;2023-05-07T06:57:32;3.73;;;3.27;;
29940;SDS011;16801;53.562;10.038;2023-05-07T07:00:54;3.53;;;3.33;;
29940;SDS011;16801;53.562;10.038;2023-05-07T07:04:16;5.93;;;4.57;;
29940;SDS011;16801;53.562;10.038;2023-05-07T07:07:41;2.90;;;2.70;;
29940;SDS011;16801;53.562;10.038;2023-05-07T07:11:03;4.63;;;3.33;;
29940;SDS011;16801;53.562;10.038;2023-05-07T07:14:25;5.43;;;4.03;;
29940;SDS011;16801;53.562;10.038;2023-05-07T07:17:48;3.60;;;3.30;;
29940;SDS011;16801;53.562;10.038;2023-05-07T07:21:09;6.60;;;4.37;;
29940;SDS011;16801;53.562;10.038;2023-05-07T07:24:31;2.90;;;2.67;;
29940;SDS011;16801;53.562;10.038;2023-05-07T07:27:55;4.03;;;3.60;;
29940;SDS011;16801;53.562;10.038;2023-05-07T07:31:18;3.30;;;2.90;;
29940;SDS011;16801;53.562;10.038;2023-05-07T07:34:41;4.30;;;3.73;;
29940;SDS011;16801;53.562;10.038;2023-05-07T07:38:02;4.17;;;3.37;;
29940;SDS011;16801;53.562;10.038;2023-05-07T07:41:24;3.40;;;3.10;;
29940;SDS011;16801;53.562;10.038;2023-05-07T07:44:46;2.83;;;2.53;;
29940;SDS011;16801;53.562;10.038;2023-05-07T07:48:09;2.63;;;2.23;;
29940;SDS011;16801;53.562;10.038;2023-05-07T07:51:32;4.23;;;3.40;;
29940;SDS011;16801;53.562;10.038;2023-05-07T07:54:54;3.43;;;3.07;;
29940;SDS011;16801;53.562;10.038;2023-05-07T07:58:15;3.97;;;2.70;;
29940;SDS011;16801;53.562;10.038;2023-05-07T08:01:37;3.37;;;3.07;;
29940;SDS011;16801;53.562;10.038;2023-05-07T08:04:58;3.70;;;3.37;;
29940;SDS011;16801;53.562;10.038;2023-05-07T08:08:21;5.13;;;3.30;;
29940;SDS011;16801;53.562;10.038;2023-05-07T08:11:42;3.47;;;3.17;;
29940;SDS011;16801;53.562;10.038;2023-05-07T08:15:04;3.07;;;2.43;;
29940;SDS011;16801;53.562;10.038;2023-05-07T08:18:25;6.43;;;3.30;;
29940;SDS011;16801;53.562;10.038;2023-05-07T08:21:48;4.43;;;2.90;;
29940;SDS011;16801;53.562;10.038;2023-05-07T08:25:12;5.57;;;3.33;;
29940;SDS011;16801;53.562;10.038;2023-05-07T08:28:33;4.03;;;3.13;;
29940;SDS011;16801;53.562;10.038;2023-05-07T08:31:54;3.27;;;2.50;;
29940;SDS011;16801;53.562;10.038;2023-05-07T08:35:15;3.33;;;2.80;;
29940;SDS011;16801;53.562;10.038;2023-05-07T08:38:36;2.73;;;2.53;;
29940;SDS011;16801;53.562;10.038;2023-05-07T08:41:58;3.13;;;2.93;;
29940;SDS011;16801;53.562;10.038;2023-05-07T08:45:22;2.70;;;2.50;;
29940;SDS011;16801;53.562;10.038;2023-05-07T08:48:47;3.80;;;3.07;;
29940;SDS011;16801;53.562;10.038;2023-05-07T08:52:08;3.63;;;2.70;;
29940;SDS011;16801;53.562;10.038;2023-05-07T08:55:30;4.00;;;3.57;;
29940;SDS011;16801;53.562;10.038;2023-05-07T08:58:54;5.13;;;4.33;;
29940;SDS011;16801;53.562;10.038;2023-05-07T09:02:16;2.93;;;2.73;;
29940;SDS011;16801;53.562;10.038;2023-05-07T09:05:38;4.23;;;3.33;;
29940;SDS011;16801;53.562;10.038;2023-05-07T09:09:00;3.40;;;3.10;;
29940;SDS011;16801;53.562;10.038;2023-05-07T09:12:23;5.30;;;3.40;;
29940;SDS011;16801;53.562;10.038;2023-05-07T09:15:46;6.67;;;3.40;;
29940;SDS011;16801;53.562;10.038;2023-05-07T09:19:07;2.97;;;2.73;;
29940;SDS011;16801;53.562;10.038;2023-05-07T09:22:31;2.57;;;2.23;;
29940;SDS011;16801;53.562;10.038;2023-05-07T09:25:55;3.50;;;3.20;;
29940;SDS011;16801;53.562;10.038;2023-05-07T09:29:22;2.97;;;2.77;;
29940;SDS011;16801;53.562;10.038;2023-05-07T09:32:45;5.07;;;3.97;;
29940;SDS011;16801;53.562;10.038;2023-05-07T09:36:10;3.87;;;3.37;;
29940;SDS011;16801;53.562;10.038;2023-05-07T09:39:40;3.87;;;3.57;;
29940;SDS011;16801;53.562;10.038;2023-05-07T09:43:09;3.30;;;2.97;;
29940;SDS011;16801;53.562;10.038;2023-05-07T09:46:33;2.60;;;2.37;;
29940;SDS011;16801;53.562;10.038;2023-05-07T09:50:03;3.77;;;3.40;;
29940;SDS011;16801;53.562;10.038;2023-05-07T09:53:29;2.93;;;2.57;;
29940;SDS011;16801;53.562;10.038;2023-05-07T09:56:51;3.67;;;3.37;;
29940;SDS011;16801;53.562;10.038;2023-05-07T10:00:16;4.30;;;3.00;;
29940;SDS011;16801;53.562;10.038;2023-05-07T10:03:41;2.70;;;2.43;;
29940;SDS011;16801;53.562;10.038;2023-05-07T10:07:04;5.97;;;4.90;;
29940;SDS011;16801;53.562;10.038;2023-05-07T10:10:28;3.63;;;3.27;;
29940;SDS011;16801;53.562;10.038;2023-05-07T10:13:51;3.67;;;3.37;;
29940;SDS011;16801;53.562;10.038;2023-05-07T10:17:13;2.40;;;2.23;;
29940;SDS011;16801;53.562;10.038;2023-05-07T10:20:37;2.80;;;2.60;;
29940;SDS011;16801;53.562;10.038;2023-05-07T10:24:05;3.53;;;3.23;;
29940;SDS011;16801;53.562;10.038;2023-05-07T10:27:33;3.33;;;3.03;;
29940;SDS011;16801;53.562;10.038;2023-05-07T10:30:58;3.17;;;2.80;;
29940;SDS011;16801;53.562;10.038;2023-05-07T10:34:37;2.90;;;2.57;;
29940;SDS011;16801;53.562;10.038;2023-05-07T10:38:01;2.53;;;2.20;;
29940;SDS011;16801;53.562;10.038;2023-05-07T10:41:26;2.47;;;2.27;;
29940;SDS011;16801;53.562;10.038;2023-05-07T10:44:47;2.77;;;2.57;;
29940;SDS011;16801;53.562;10.038;2023-05-07T10:48:15;3.97;;;2.40;;
29940;SDS011;16801;53.562;10.038;2023-05-07T10:51:43;2.77;;;2.57;;
29940;SDS011;16801;53.562;10.038;2023-05-07T10:55:18;3.97;;;1.97;;
29940;SDS011;16801;53.562;10.038;2023-05-07T10:58:53;3.90;;;2.60;;
29940;SDS011;16801;53.562;10.038;2023-05-07T11:02:19;2.80;;;2.60;;
29940;SDS011;16801;53.562;10.038;2023-05-07T11:05:44;3.23;;;2.73;;
29940;SDS011;16801;53.562;10.038;2023-05-07T11:09:17;3.90;;;3.60;;
29940;SDS011;16801;53.562;10.038;2023-05-07T11:12:53;2.83;;;2.63;;
29940;SDS011;16801;53.562;10.038;2023-05-07T11:16:22;2.60;;;2.40;;
29940;SDS011;16801;53.562;10.038;2023-05-07T11:19:50;4.37;;;2.93;;
29940;SDS011;16801;53.562;10.038;2023-05-07T11:27:34;3.80;;;2.70;;
29940;SDS011;16801;53.562;10.038;2023-05-07T11:30:55;6.63;;;6.03;;
29940;SDS011;16801;53.562;10.038;2023-05-07T11:34:22;3.10;;;2.63;;
29940;SDS011;16801;53.562;10.038;2023-05-07T11:37:46;3.43;;;2.60;;
29940;SDS011;16801;53.562;10.038;2023-05-07T11:41:09;2.63;;;2.43;;
29940;SDS011;16801;53.562;10.038;2023-05-07T11:44:40;4.67;;;2.77;;
29940;SDS011;16801;53.562;10.038;2023-05-07T11:48:02;2.63;;;2.00;;
29940;SDS011;16801;53.562;10.038;2023-05-07T11:51:25;1.80;;;1.70;;
29940;SDS011;16801;53.562;10.038;2023-05-07T11:54:48;2.70;;;2.50;;
29940;SDS011;16801;53.562;10.038;2023-05-07T11:58:11;2.80;;;2.43;;
29940;SDS011;16801;53.562;10.038;2023-05-07T12:01:34;2.23;;;2.10;;
29940;SDS011;16801;53.562;10.038;2023-05-07T12:04:55;2.20;;;2.00;;
29940;SDS011;16801;53.562;10.038;2023-05-07T12:08:18;3.00;;;2.70;;
29940;SDS011;16801;53.562;10.038;2023-05-07T12:11:39;2.67;;;2.47;;
29940;SDS011;16801;53.562;10.038;2023-05-07T12:15:00;2.50;;;2.30;;
29940;SDS011;16801;53.562;10.038;2023-05-07T12:18:21;1.67;;;1.47;;
29940;SDS011;16801;53.562;10.038;2023-05-07T12:21:42;2.70;;;2.50;;
29940;SDS011;16801;53.562;10.038;2023-05-07T12:25:05;2.33;;;2.13;;
29940;SDS011;16801;53.562;10.038;2023-05-07T12:28:27;6.50;;;2.70;;
29940;SDS011;16801;53.562;10.038;2023-05-07T12:31:48;7.50;;;2.13;;
29940;SDS011;16801;53.562;10.038;2023-05-07T12:35:10;2.33;;;2.23;;
29940;SDS011;16801;53.562;10.038;2023-05-07T12:38:34;1.83;;;1.73;;
29940;SDS011;16801;53.562;10.038;2023-05-07T12:41:58;2.17;;;1.97;;
29940;SDS011;16801;53.562;10.038;2023-05-07T12:45:20;4.77;;;2.93;;
29940;SDS011;16801;53.562;10.038;2023-05-07T12:48:43;2.50;;;2.30;;
29940;SDS011;16801;53.562;10.038;2023-05-07T12:52:05;2.13;;;2.03;;
29940;SDS011;16801;53.562;10.038;2023-05-07T12:55:26;2.33;;;2.03;;
29940;SDS011;16801;53.562;10.038;2023-05-07T12:58:51;2.33;;;2.20;;
29940;SDS011;16801;53.562;10.038;2023-05-07T13:02:11;2.30;;;2.10;;
29940;SDS011;16801;53.562;10.038;2023-05-07T13:05:34;2.63;;;2.43;;
29940;SDS011;16801;53.562;10.038;2023-05-07T13:08:55;1.73;;;1.37;;
29940;SDS011;16801;53.562;10.038;2023-05-07T13:12:16;1.97;;;1.87;;
29940;SDS011;16801;53.562;10.038;2023-05-07T13:15:38;2.80;;;1.90;;
29940;SDS011;16801;53.562;10.038;2023-05-07T13:18:59;2.03;;;1.90;;
29940;SDS011;16801;53.562;10.038;2023-05-07T13:22:19;1.50;;;1.33;;
29940;SDS011;16801;53.562;10.038;2023-05-07T13:25:40;1.83;;;1.73;;
29940;SDS011;16801;53.562;10.038;2023-05-07T13:29:01;2.93;;;1.67;;
29940;SDS011;16801;53.562;10.038;2023-05-07T13:32:23;1.70;;;1.60;;
29940;SDS011;16801;53.562;10.038;2023-05-07T13:35:44;1.30;;;1.20;;
29940;SDS011;16801;53.562;10.038;2023-05-07T13:39:05;1.27;;;1.23;;
29940;SDS011;16801;53.562;10.038;2023-05-07T13:42:26;1.60;;;1.50;;
29940;SDS011;16801;53.562;10.038;2023-05-07T13:45:47;1.77;;;1.67;;
29940;SDS011;16801;53.562;10.038;2023-05-07T13:49:09;1.40;;;1.30;;
29940;SDS011;16801;53.562;10.038;2023-05-07T13:52:31;1.60;;;1.27;;
29940;SDS011;16801;53.562;10.038;2023-05-07T13:55:52;1.55;;;1.30;;
29940;SDS011;16801;53.562;10.038;2023-05-07T13:59:13;1.30;;;1.20;;
29940;SDS011;16801;53.562;10.038;2023-05-07T14:02:34;1.63;;;1.13;;
29940;SDS011;16801;53.562;10.038;2023-05-07T14:05:56;1.00;;;1.00;;
29940;SDS011;16801;53.562;10.038;2023-05-07T14:09:19;1.67;;;1.10;;
29940;SDS011;16801;53.562;10.038;2023-05-07T14:12:39;3.17;;;1.30;;
29940;SDS011;16801;53.562;10.038;2023-05-07T14:16:00;2.55;;;1.88;;
29940;SDS011;16801;53.562;10.038;2023-05-07T14:19:21;1.58;;;1.23;;
29940;SDS011;16801;53.562;10.038;2023-05-07T14:22:44;1.23;;;1.13;;
29940;SDS011;16801;53.562;10.038;2023-05-07T14:26:05;1.80;;;1.13;;
29940;SDS011;16801;53.562;10.038;2023-05-07T14:29:26;2.40;;;2.20;;
29940;SDS011;16801;53.562;10.038;2023-05-07T14:32:47;1.10;;;1.02;;
29940;SDS011;16801;53.562;10.038;2023-05-07T14:36:07;1.00;;;1.00;;
29940;SDS011;16801;53.562;10.038;2023-05-07T14:39:30;2.03;;;1.88;;
29940;SDS011;16801;53.562;10.038;2023-05-07T14:42:50;0.93;;;0.93;;
29940;SDS011;16801;53.562;10.038;2023-05-07T14:46:11;1.85;;;1.60;;
29940;SDS011;16801;53.562;10.038;2023-05-07T14:49:32;1.08;;;1.08;;
29940;SDS011;16801;53.562;10.038;2023-05-07T14:52:53;2.30;;;2.10;;
29940;SDS011;16801;53.562;10.038;2023-05-07T14:56:16;0.93;;;0.85;;
29940;SDS011;16801;53.562;10.038;2023-05-07T14:59:37;1.92;;;1.77;;
29940;SDS011;16801;53.562;10.038;2023-05-07T15:03:00;1.33;;;1.23;;
29940;SDS011;16801;53.562;10.038;2023-05-07T15:06:26;1.63;;;1.52;;
29940;SDS011;16801;53.562;10.038;2023-05-07T15:09:48;3.33;;;1.58;;
29940;SDS011;16801;53.562;10.038;2023-05-07T15:13:11;1.33;;;1.10;;
29940;SDS011;16801;53.562;10.038;2023-05-07T15:16:32;1.75;;;1.45;;
29940;SDS011;16801;53.562;10.038;2023-05-07T15:19:53;1.50;;;1.45;;
29940;SDS011;16801;53.562;10.038;2023-05-07T15:23:14;1.38;;;1.27;;
29940;SDS011;16801;53.562;10.038;2023-05-07T15:26:38;2.10;;;1.85;;
29940;SDS011;16801;53.562;10.038;2023-05-07T15:30:00;1.30;;;1.20;;
29940;SDS011;16801;53.562;10.038;2023-05-07T15:33:21;1.67;;;1.58;;
29940;SDS011;16801;53.562;10.038;2023-05-07T15:36:43;3.37;;;3.07;;
29940;SDS011;16801;53.562;10.038;2023-05-07T15:40:05;3.08;;;2.28;;
29940;SDS011;16801;53.562;10.038;2023-05-07T15:43:27;5.18;;;4.63;;
29940;SDS011;16801;53.562;10.038;2023-05-07T15:46:49;4.00;;;2.42;;
29940;SDS011;16801;53.562;10.038;2023-05-07T15:50:10;3.72;;;3.42;;
29940;SDS011;16801;53.562;10.038;2023-05-07T15:53:31;2.22;;;2.00;;
29940;SDS011;16801;53.562;10.038;2023-05-07T15:56:53;5.27;;;2.53;;
29940;SDS011;16801;53.562;10.038;2023-05-07T16:00:14;4.27;;;3.83;;
29940;SDS011;16801;53.562;10.038;2023-05-07T16:03:38;2.07;;;1.63;;
29940;SDS011;16801;53.562;10.038;2023-05-07T16:07:00;2.43;;;2.27;;
29940;SDS011;16801;53.562;10.038;2023-05-07T16:10:21;2.97;;;2.27;;
29940;SDS011;16801;53.562;10.038;2023-05-07T16:13:42;2.43;;;1.40;;
29940;SDS011;16801;53.562;10.038;2023-05-07T16:17:02;1.60;;;1.50;;
29940;SDS011;16801;53.562;10.038;2023-05-07T16:20:26;3.57;;;3.27;;
29940;SDS011;16801;53.562;10.038;2023-05-07T16:23:49;2.07;;;1.97;;
29940;SDS011;16801;53.562;10.038;2023-05-07T16:27:10;2.30;;;2.20;;
29940;SDS011;16801;53.562;10.038;2023-05-07T16:30:31;2.90;;;1.80;;
29940;SDS011;16801;53.562;10.038;2023-05-07T16:33:52;1.30;;;1.00;;
29940;SDS011;16801;53.562;10.038;2023-05-07T16:37:14;1.57;;;1.47;;
29940;SDS011;16801;53.562;10.038;2023-05-07T16:40:36;1.47;;;1.33;;
29940;SDS011;16801;53.562;10.038;2023-05-07T16:43:58;4.00;;;2.63;;
29940;SDS011;16801;53.562;10.038;2023-05-07T16:47:19;1.60;;;1.50;;
29940;SDS011;16801;53.562;10.038;2023-05-07T16:50:40;3.00;;;1.97;;
29940;SDS011;16801;53.562;10.038;2023-05-07T16:54:04;1.80;;;1.60;;
29940;SDS011;16801;53.562;10.038;2023-05-07T16:57:25;2.80;;;2.20;;
29940;SDS011;16801;53.562;10.038;2023-05-07T17:00:46;1.70;;;1.60;;
29940;SDS011;16801;53.562;10.038;2023-05-07T17:04:07;1.50;;;1.40;;
29940;SDS011;16801;53.562;10.038;2023-05-07T17:07:28;2.37;;;2.17;;
29940;SDS011;16801;53.562;10.038;2023-05-07T17:10:50;2.23;;;2.00;;
29940;SDS011;16801;53.562;10.038;2023-05-07T17:14:11;2.67;;;1.80;;
29940;SDS011;16801;53.562;10.038;2023-05-07T17:17:32;1.63;;;1.53;;
29940;SDS011;16801;53.562;10.038;2023-05-07T17:20:52;1.53;;;1.43;;
29940;SDS011;16801;53.562;10.038;2023-05-07T17:24:13;6.03;;;5.37;;
29940;SDS011;16801;53.562;10.038;2023-05-07T17:27:36;2.80;;;2.37;;
29940;SDS011;16801;53.562;10.038;2023-05-07T17:30:56;2.27;;;1.17;;
29940;SDS011;16801;53.562;10.038;2023-05-07T17:34:17;1.83;;;1.67;;
29940;SDS011;16801;53.562;10.038;2023-05-07T17:37:38;2.67;;;2.47;;
29940;SDS011;16801;53.562;10.038;2023-05-07T17:41:00;1.53;;;1.43;;
29940;SDS011;16801;53.562;10.038;2023-05-07T17:44:22;2.40;;;2.20;;
29940;SDS011;16801;53.562;10.038;2023-05-07T17:47:43;14.93;;;2.30;;
29940;SDS011;16801;53.562;10.038;2023-05-07T17:51:04;1.53;;;1.43;;
29940;SDS011;16801;53.562;10.038;2023-05-07T17:54:25;8.83;;;2.03;;
29940;SDS011;16801;53.562;10.038;2023-05-07T17:57:46;2.33;;;2.13;;
29940;SDS011;16801;53.562;10.038;2023-05-07T18:01:08;2.53;;;1.77;;
29940;SDS011;16801;53.562;10.038;2023-05-07T18:04:29;3.27;;;2.97;;
29940;SDS011;16801;53.562;10.038;2023-05-07T18:07:50;1.70;;;1.60;;
29940;SDS011;16801;53.562;10.038;2023-05-07T18:11:11;3.27;;;2.57;;
29940;SDS011;16801;53.562;10.038;2023-05-07T18:14:31;1.33;;;1.23;;
29940;SDS011;16801;53.562;10.038;2023-05-07T18:17:54;1.73;;;1.07;;
29940;SDS011;16801;53.562;10.038;2023-05-07T18:21:15;2.53;;;2.33;;
29940;SDS011;16801;53.562;10.038;2023-05-07T18:24:37;2.33;;;1.83;;
29940;SDS011;16801;53.562;10.038;2023-05-07T18:27:58;2.73;;;2.10;;
29940;SDS011;16801;53.562;10.038;2023-05-07T18:31:19;2.90;;;2.07;;
29940;SDS011;16801;53.562;10.038;2023-05-07T18:34:41;2.70;;;1.20;;
29940;SDS011;16801;53.562;10.038;2023-05-07T18:38:02;2.73;;;1.50;;
29940;SDS011;16801;53.562;10.038;2023-05-07T18:41:23;1.70;;;1.57;;
29940;SDS011;16801;53.562;10.038;2023-05-07T18:44:44;2.30;;;2.00;;
29940;SDS011;16801;53.562;10.038;2023-05-07T18:48:05;2.03;;;1.83;;
29940;SDS011;16801;53.562;10.038;2023-05-07T18:51:27;1.50;;;1.40;;
29940;SDS011;16801;53.562;10.038;2023-05-07T18:54:48;1.93;;;1.73;;
29940;SDS011;16801;53.562;10.038;2023-05-07T18:58:09;2.07;;;1.97;;
29940;SDS011;16801;53.562;10.038;2023-05-07T19:01:30;1.67;;;1.57;;
29940;SDS011;16801;53.562;10.038;2023-05-07T19:04:50;2.27;;;2.07;;
29940;SDS011;16801;53.562;10.038;2023-05-07T19:08:13;2.00;;;1.80;;
29940;SDS011;16801;53.562;10.038;2023-05-07T19:11:34;1.50;;;1.40;;
29940;SDS011;16801;53.562;10.038;2023-05-07T19:14:54;1.80;;;1.70;;
29940;SDS011;16801;53.562;10.038;2023-05-07T19:18:15;2.37;;;1.93;;
29940;SDS011;16801;53.562;10.038;2023-05-07T19:21:36;1.80;;;1.70;;
29940;SDS011;16801;53.562;10.038;2023-05-07T19:24:58;1.33;;;1.23;;
29940;SDS011;16801;53.562;10.038;2023-05-07T19:28:19;2.57;;;1.30;;
29940;SDS011;16801;53.562;10.038;2023-05-07T19:31:40;2.73;;;2.53;;
29940;SDS011;16801;53.562;10.038;2023-05-07T19:35:01;2.80;;;2.43;;
29940;SDS011;16801;53.562;10.038;2023-05-07T19:38:22;3.63;;;1.90;;
29940;SDS011;16801;53.562;10.038;2023-05-07T19:41:44;2.63;;;2.43;;
29940;SDS011;16801;53.562;10.038;2023-05-07T19:45:06;1.57;;;1.47;;
29940;SDS011;16801;53.562;10.038;2023-05-07T19:48:27;5.53;;;2.87;;
29940;SDS011;16801;53.562;10.038;2023-05-07T19:51:48;1.90;;;1.67;;
29940;SDS011;16801;53.562;10.038;2023-05-07T19:55:09;2.87;;;2.60;;
29940;SDS011;16801;53.562;10.038;2023-05-07T19:58:32;4.23;;;3.33;;
29940;SDS011;16801;53.562;10.038;2023-05-07T20:01:53;2.00;;;1.53;;
29940;SDS011;16801;53.562;10.038;2023-05-07T20:05:14;3.20;;;2.90;;